Time;durP1;ratioP1;P1;durP2;ratioP2;P2;SDS_P1;SDS_P2;PMS_P1;PMS_P2;Temp;Humidity;BMP_temperature;BMP_pressure;BME280_temperature;BME280_humidity;BME280_pressure;Samples;Min_cycle;Max_cycle;Signal;HPM_P1;HPM_P2
2021/12/07 00:02:16;;;;;;;12.63;11.43;;;3.30;1.00;4.60;99629.00;;;;5016210;28;20535;-76
2021/12/07 00:04:46;;;;;;;11.83;10.63;;;3.30;1.00;4.60;99635.00;;;;5014250;28;20540;-76
2021/12/07 00:07:17;;;;;;;11.57;10.47;;;3.30;1.00;4.50;99596.00;;;;5022099;28;21018;-76
2021/12/07 00:09:49;;;;;;;11.23;10.20;;;3.20;1.00;4.50;99634.00;;;;5008496;28;20498;-77
2021/12/07 00:12:18;;;;;;;11.43;10.33;;;3.20;1.00;4.60;99618.00;;;;5011616;28;20457;-77
2021/12/07 00:14:47;;;;;;;11.20;10.10;;;3.20;1.00;4.60;99493.00;;;;5013648;28;20524;-77
2021/12/07 00:17:16;;;;;;;10.67;9.50;;;3.20;1.00;4.60;99575.00;;;;5019319;28;20487;-76
2021/12/07 00:19:45;;;;;;;9.90;8.90;;;3.20;1.00;4.60;99579.00;;;;5037115;28;20482;-77
2021/12/07 00:22:15;;;;;;;11.37;10.37;;;3.20;1.00;4.50;99588.00;;;;5007162;28;20552;-77
2021/12/07 00:24:43;;;;;;;10.43;9.50;;;3.10;1.00;4.50;99545.00;;;;5024774;28;20453;-75
2021/12/07 00:27:12;;;;;;;11.30;10.10;;;3.10;1.00;4.50;99612.00;;;;5028264;28;20446;-78
2021/12/07 00:29:40;;;;;;;11.47;10.27;;;3.10;1.00;4.50;99600.00;;;;5015960;28;21258;-75
2021/12/07 00:32:22;;;;;;;11.83;10.70;;;3.10;1.00;4.50;99593.00;;;;5012306;28;20458;-74
2021/12/07 00:37:46;;;;;;;11.17;10.13;;;3.10;1.00;4.40;99586.00;;;;5013138;28;20931;-74
2021/12/07 00:40:18;;;;;;;12.33;11.13;;;3.00;1.00;4.30;99548.00;;;;5013863;28;20496;-76
2021/12/07 00:42:46;;;;;;;12.53;11.37;;;3.00;1.00;4.30;99591.00;;;;5033685;28;20441;-82
2021/12/07 00:45:20;;;;;;;12.60;11.40;;;2.90;1.00;4.30;99578.00;;;;5037258;28;20505;-84
2021/12/07 00:47:51;;;;;;;12.30;10.97;;;2.90;1.00;4.20;99574.00;;;;5038146;28;20481;-75
2021/12/07 00:50:22;;;;;;;14.10;12.77;;;2.90;1.00;4.30;99563.00;;;;5039348;28;20449;-74
2021/12/07 00:52:53;;;;;;;12.80;11.53;;;2.90;1.00;4.40;99578.00;;;;5039896;28;20418;-77
2021/12/07 00:55:27;;;;;;;12.73;11.50;;;2.90;1.00;4.40;99555.00;;;;5055144;28;20508;-77
2021/12/07 00:57:58;;;;;;;13.43;12.30;;;3.00;1.00;4.40;99545.00;;;;5039028;28;20453;-77
2021/12/07 01:00:30;;;;;;;13.03;11.80;;;2.90;1.00;4.40;99545.00;;;;5039147;28;20472;-77
2021/12/07 01:02:59;;;;;;;13.50;12.20;;;3.00;1.00;4.40;99530.00;;;;5049601;28;20454;-75
2021/12/07 01:05:33;;;;;;;13.13;12.03;;;3.00;1.00;4.30;99564.00;;;;5017161;28;20442;-75
2021/12/07 01:08:27;;;;;;;12.80;11.60;;;3.00;1.00;4.40;99509.00;;;;5031894;28;20462;-76
2021/12/07 01:24:49;;;;;;;13.33;12.00;;;2.90;1.00;4.50;99516.00;;;;5022864;28;20446;-76
2021/12/07 01:27:21;;;;;;;12.43;11.23;;;2.80;1.00;4.60;99489.00;;;;5013057;28;20501;-77
2021/12/07 01:30:02;;;;;;;12.43;11.30;;;2.90;1.00;4.50;99509.00;;;;5009303;28;20476;-78
2021/12/07 01:32:48;;;;;;;13.37;12.17;;;2.80;1.00;4.50;99511.00;;;;5031789;28;20457;-76
2021/12/07 01:38:22;;;;;;;12.90;11.67;;;2.80;1.00;4.60;99535.00;;;;5027122;28;20461;-75
2021/12/07 01:41:03;;;;;;;10.47;9.30;;;2.90;1.00;4.50;99471.00;;;;5034702;22;20502;-79
2021/12/07 01:43:56;;;;;;;13.03;11.73;;;2.80;1.00;4.40;99493.00;;;;5017178;28;20475;-80
2021/12/07 01:46:58;;;;;;;13.30;11.30;;;2.80;1.00;4.40;99522.00;;;;5013676;28;20458;-78
2021/12/07 01:52:41;;;;;;;12.20;11.10;;;2.60;1.00;4.10;99530.00;;;;4917177;29;20454;-77
2021/12/07 02:00:47;;;;;;;9.53;8.70;;;2.50;1.00;3.90;99543.00;;;;4980758;28;20990;-78
2021/12/07 02:03:16;;;;;;;8.70;8.00;;;2.50;1.00;3.80;99532.00;;;;4996176;28;21144;-78
2021/12/07 02:05:45;;;;;;;9.30;8.50;;;2.40;1.00;3.80;99509.00;;;;5004012;28;21012;-78
2021/12/07 02:08:14;;;;;;;8.80;8.00;;;2.50;1.00;3.70;99548.00;;;;5016142;28;20442;-78
2021/12/07 02:10:43;;;;;;;9.63;8.83;;;2.50;1.00;3.60;99538.00;;;;5002911;28;20510;-78
2021/12/07 02:14:01;;;;;;;9.50;8.60;;;2.50;1.00;217.30;158235.00;;;;4984777;28;20446;-78
2021/12/07 02:16:12;;;;;;;9.93;9.13;;;2.50;1.00;3.50;99536.00;;;;4985592;28;20931;-79
2021/12/07 02:18:43;;;;;;;11.13;10.13;;;2.40;1.00;3.60;99531.00;;;;5027445;28;20470;-78
2021/12/07 02:21:24;;;;;;;12.20;11.10;;;2.40;1.00;3.80;99526.00;;;;5004871;28;20483;-79
2021/12/07 02:24:00;;;;;;;11.70;10.57;;;2.40;1.00;3.80;99526.00;;;;5020005;28;20452;-80
2021/12/07 02:26:29;;;;;;;11.90;10.90;;;2.50;1.00;3.80;99516.00;;;;5015246;28;20447;-79
2021/12/07 02:28:58;;;;;;;12.53;11.40;;;2.60;1.00;3.90;99539.00;;;;5012695;28;20533;-79
2021/12/07 02:31:27;;;;;;;13.07;11.87;;;2.70;1.00;4.00;99521.00;;;;5010731;28;20578;-79
2021/12/07 02:33:56;;;;;;;14.37;13.20;;;2.60;1.00;4.00;99484.00;;;;4995318;28;20449;-80
2021/12/07 02:36:27;;;;;;;14.10;12.90;;;2.70;1.00;3.90;99515.00;;;;5008069;28;20455;-79
2021/12/07 02:38:57;;;;;;;13.53;12.23;;;2.80;1.00;3.90;99525.00;;;;5005180;28;21228;-77
2021/12/07 02:41:25;;;;;;;14.77;13.47;;;2.80;1.00;3.90;99512.00;;;;5002957;28;20520;-79
2021/12/07 02:43:54;;;;;;;14.30;13.03;;;2.80;1.00;4.00;99549.00;;;;4987553;28;20448;-79
2021/12/07 02:46:22;;;;;;;15.90;14.50;;;2.90;1.00;4.10;99546.00;;;;5007697;28;20884;-79
2021/12/07 02:48:55;;;;;;;15.33;13.87;;;2.90;1.00;4.10;99531.00;;;;5008577;28;20451;-79
2021/12/07 02:51:24;;;;;;;14.73;13.33;;;3.00;1.00;4.10;99536.00;;;;5006137;28;21033;-80
2021/12/07 02:53:56;;;;;;;15.13;13.53;;;3.10;1.00;4.20;99554.00;;;;4992911;28;20455;-81
2021/12/07 02:56:26;;;;;;;14.73;13.40;;;3.10;1.00;4.20;99534.00;;;;5020590;28;20560;-79
2021/12/07 02:58:58;;;;;;;13.93;12.53;;;3.20;1.00;4.30;99542.00;;;;4995344;28;20928;-79
2021/12/07 03:01:31;;;;;;;13.50;12.20;;;3.20;1.00;4.30;99548.00;;;;5005383;28;20531;-80
2021/12/07 03:04:06;;;;;;;13.40;12.00;;;3.30;1.00;4.40;99552.00;;;;5013450;28;20454;-79
2021/12/07 03:06:53;;;;;;;12.37;11.30;;;3.40;1.00;4.40;99553.00;;;;4996144;28;20494;-80
2021/12/07 03:26:16;;;;;;;10.37;9.40;;;3.70;1.00;4.60;99553.00;;;;5012635;28;20454;-79
2021/12/07 03:28:50;;;;;;;9.20;8.37;;;3.70;1.00;4.60;99557.00;;;;5009267;28;20454;-79
2021/12/07 03:31:25;;;;;;;10.90;8.93;;;3.80;1.00;4.60;99507.00;;;;5012901;28;20489;-81
2021/12/07 03:33:55;;;;;;;10.13;9.03;;;3.70;1.00;4.60;99537.00;;;;5002868;28;20449;-78
2021/12/07 03:36:27;;;;;;;10.43;9.53;;;3.80;1.00;4.70;99523.00;;;;5017973;28;20522;-80
2021/12/07 03:38:58;;;;;;;9.90;8.90;;;3.80;1.00;4.60;99555.00;;;;4993584;28;20446;-79
2021/12/07 03:41:28;;;;;;;10.37;9.30;;;3.80;1.00;4.70;99566.00;;;;5009256;28;20492;-78
2021/12/07 03:43:57;;;;;;;9.63;8.83;;;3.80;1.00;4.70;99555.00;;;;5017487;28;20458;-79
2021/12/07 03:46:27;;;;;;;10.10;9.03;;;3.80;1.00;4.70;99573.00;;;;5019583;28;20533;-79
2021/12/07 03:48:56;;;;;;;9.40;8.40;;;3.80;1.00;4.60;99565.00;;;;4990820;28;20466;-79
2021/12/07 03:51:25;;;;;;;10.00;8.07;;;3.90;1.00;4.70;99561.00;;;;5006907;28;20462;-80
2021/12/07 03:53:56;;;;;;;9.40;8.50;;;3.80;1.00;4.70;99580.00;;;;5014638;28;20431;-79
2021/12/07 03:56:25;;;;;;;8.27;7.03;;;3.80;1.00;4.70;99512.00;;;;5015991;28;20945;-79
2021/12/07 03:58:55;;;;;;;7.53;6.60;;;3.90;1.00;4.70;99572.00;;;;4988236;28;20451;-80
2021/12/07 04:01:25;;;;;;;7.63;6.57;;;3.90;1.00;4.80;99592.00;;;;4987791;28;20493;-79
2021/12/07 04:03:56;;;;;;;7.40;6.70;;;3.90;1.00;4.80;99531.00;;;;5005638;28;20446;-79
2021/12/07 04:06:24;;;;;;;6.83;6.13;;;3.90;1.00;4.80;99602.00;;;;5012073;28;20459;-80
2021/12/07 04:08:53;;;;;;;8.00;6.87;;;4.00;1.00;4.80;99580.00;;;;5009904;28;21166;-79
2021/12/07 04:11:21;;;;;;;10.77;6.27;;;4.00;1.00;4.80;99616.00;;;;5018896;28;20508;-80
2021/12/07 04:13:50;;;;;;;7.30;6.30;;;4.00;1.00;4.90;99621.00;;;;4991770;28;20461;-79
2021/12/07 04:16:23;;;;;;;9.23;6.40;;;4.00;1.00;4.90;99603.00;;;;5013882;28;20498;-79
2021/12/07 04:18:55;;;;;;;6.50;5.77;;;4.00;1.00;4.90;99599.00;;;;5005481;28;20832;-78
2021/12/07 04:21:24;;;;;;;7.97;5.80;;;4.00;1.00;4.90;99571.00;;;;4997433;28;20457;-80
2021/12/07 04:23:53;;;;;;;6.70;5.03;;;4.10;1.00;4.90;99611.00;;;;4998473;28;20821;-78
2021/12/07 04:26:22;;;;;;;9.27;5.57;;;4.10;1.00;4.90;99629.00;;;;4982224;28;20455;-79
2021/12/07 04:28:50;;;;;;;6.13;4.73;;;4.10;1.00;5.00;99617.00;;;;4984822;28;20529;-78
2021/12/07 04:31:20;;;;;;;7.13;5.40;;;4.20;1.00;5.10;99618.00;;;;4995157;28;20982;-78
2021/12/07 04:33:49;;;;;;;10.67;5.40;;;4.20;1.00;5.10;99623.00;;;;4997020;28;20473;-78
2021/12/07 04:36:18;;;;;;;10.50;4.83;;;4.30;1.00;5.20;99589.00;;;;5003654;28;20478;-78
2021/12/07 04:38:46;;;;;;;7.27;4.03;;;4.30;1.00;5.20;99623.00;;;;5005875;28;20452;-77
2021/12/07 04:41:14;;;;;;;10.23;5.00;;;4.40;1.00;5.20;99631.00;;;;5019064;28;20481;-79
2021/12/07 04:43:45;;;;;;;5.93;4.20;;;4.50;1.00;5.30;99627.00;;;;5007158;28;20974;-79
2021/12/07 04:46:19;;;;;;;7.90;4.73;;;4.50;1.00;5.10;99611.00;;;;4998608;28;20462;-79
2021/12/07 04:49:26;;;;;;;7.20;4.07;;;4.50;1.00;5.30;99659.00;;;;4998467;28;20916;-78
2021/12/07 04:57:43;;;;;;;10.63;4.30;;;4.60;1.00;5.40;99677.00;;;;5017986;28;20466;-77
2021/12/07 05:00:18;;;;;;;12.37;4.00;;;4.60;1.00;5.50;99680.00;;;;4997721;28;20484;-77
2021/12/07 05:02:53;;;;;;;5.30;3.07;;;4.70;1.00;5.50;99686.00;;;;4987827;28;20443;-78
2021/12/07 05:05:30;;;;;;;7.10;3.50;;;4.70;1.00;5.50;99699.00;;;;4996910;28;20419;-78
2021/12/07 05:08:08;;;;;;;5.63;3.10;;;4.70;1.00;5.50;99691.00;;;;4997087;28;20450;-78
2021/12/07 05:10:59;;;;;;;9.47;3.80;;;4.70;1.00;5.40;99697.00;;;;4996177;28;20470;-79
2021/12/07 05:13:31;;;;;;;8.57;4.30;;;4.70;1.00;5.40;99709.00;;;;4997103;28;20454;-79
2021/12/07 05:16:25;;;;;;;9.30;3.93;;;4.60;1.00;5.50;99709.00;;;;5004964;28;20469;-78
2021/12/07 05:23:52;;;;;;;7.50;3.27;;;4.60;1.00;5.60;99720.00;;;;5000688;28;20454;-79
2021/12/07 05:24:53;;;;;;;10.00;4.60;;;4.80;1.00;5.70;99721.00;;;;5000153;28;20454;-80
2021/12/07 05:38:28;;;;;;;12.60;4.17;;;4.80;1.00;5.70;99750.00;;;;5003144;28;21278;-79
2021/12/07 05:40:56;;;;;;;10.20;4.40;;;4.90;1.00;5.70;99746.00;;;;5015063;28;20497;-78
2021/12/07 05:43:25;;;;;;;12.57;4.80;;;4.90;1.00;5.70;99745.00;;;;4997931;28;20987;-80
2021/12/07 05:45:54;;;;;;;9.47;4.07;;;4.90;1.00;5.70;99753.00;;;;5012396;28;20489;-79
2021/12/07 05:48:22;;;;;;;9.97;3.60;;;4.80;1.00;5.70;99735.00;;;;5009014;28;20486;-79
2021/12/07 05:50:51;;;;;;;11.73;4.27;;;4.90;1.00;5.70;99777.00;;;;4996211;28;20450;-80
2021/12/07 05:53:19;;;;;;;11.93;3.97;;;4.80;1.00;5.70;99775.00;;;;5014566;28;20461;-79
2021/12/07 05:55:49;;;;;;;14.97;4.33;;;4.80;1.00;5.70;99776.00;;;;5021936;28;20557;-79
2021/12/07 05:58:19;;;;;;;11.30;4.30;;;4.80;1.00;5.70;99758.00;;;;5009893;28;20462;-79
2021/12/07 06:00:49;;;;;;;12.27;4.17;;;4.90;1.00;5.70;99792.00;;;;5012235;28;20477;-78
2021/12/07 06:03:18;;;;;;;14.87;4.77;;;5.00;1.00;5.80;99781.00;;;;5000828;28;20509;-78
2021/12/07 06:05:46;;;;;;;14.40;3.80;;;4.90;1.00;5.80;99782.00;;;;4995560;28;20455;-78
2021/12/07 06:08:15;;;;;;;10.03;3.90;;;5.10;1.00;5.80;99786.00;;;;4985675;28;20450;-79
2021/12/07 06:10:44;;;;;;;8.87;3.33;;;5.00;1.00;5.80;99797.00;;;;5003812;28;20483;-79
2021/12/07 06:13:14;;;;;;;13.50;4.70;;;5.00;1.00;5.80;99798.00;;;;5005606;28;20467;-78
2021/12/07 06:15:45;;;;;;;8.87;3.67;;;5.00;1.00;5.70;99777.00;;;;5005356;28;20497;-79
2021/12/07 06:18:14;;;;;;;13.77;4.70;;;5.00;1.00;5.70;99781.00;;;;4997163;28;20493;-79
2021/12/07 06:20:43;;;;;;;8.90;4.07;;;5.00;1.00;5.70;99740.00;;;;4997530;28;20544;-79
2021/12/07 06:23:15;;;;;;;11.33;4.57;;;5.00;1.00;5.80;99821.00;;;;5001462;28;20502;-79
2021/12/07 06:25:44;;;;;;;8.30;3.27;;;5.00;1.00;5.80;99706.00;;;;5002997;28;20530;-79
2021/12/07 06:28:15;;;;;;;17.47;4.40;;;5.00;1.00;5.80;99743.00;;;;4999587;28;20463;-80
2021/12/07 06:30:45;;;;;;;7.77;3.63;;;5.10;1.00;5.60;99801.00;;;;5002634;28;20828;-80
2021/12/07 06:33:16;;;;;;;7.63;4.00;;;5.00;1.00;5.80;99818.00;;;;4999290;28;20450;-79
2021/12/07 06:35:45;;;;;;;7.03;3.40;;;5.10;1.00;5.70;99716.00;;;;5002432;28;20500;-79
2021/12/07 06:38:15;;;;;;;8.53;3.90;;;5.10;1.00;5.70;99810.00;;;;4995321;28;20497;-79
2021/12/07 06:40:44;;;;;;;5.00;3.20;;;5.00;1.00;5.70;99820.00;;;;4998630;28;20492;-79
2021/12/07 06:43:14;;;;;;;8.10;3.70;;;5.10;1.00;5.80;99839.00;;;;4994033;28;20458;-79
2021/12/07 06:45:42;;;;;;;7.73;3.23;;;5.20;1.00;5.80;99831.00;;;;4991834;28;20461;-78
2021/12/07 06:48:10;;;;;;;9.07;3.57;;;5.10;1.00;5.80;99848.00;;;;4976073;28;20469;-78
2021/12/07 06:50:39;;;;;;;6.97;3.60;;;5.10;1.00;5.90;99853.00;;;;4994106;28;20570;-78
2021/12/07 06:53:08;;;;;;;11.30;3.90;;;5.10;1.00;5.90;99861.00;;;;4985212;28;20473;-78
2021/12/07 06:55:36;;;;;;;14.43;4.07;;;5.20;1.00;5.90;99869.00;;;;5002353;28;20465;-78
2021/12/07 06:58:06;;;;;;;8.77;3.93;;;5.10;1.00;5.90;99874.00;;;;4991797;28;20480;-78
2021/12/07 07:00:38;;;;;;;7.43;3.60;;;5.20;1.00;6.00;99883.00;;;;4993272;28;20511;-78
2021/12/07 07:03:07;;;;;;;8.17;3.60;;;5.20;1.00;6.00;99862.00;;;;5002746;28;20517;-79
2021/12/07 07:05:36;;;;;;;7.37;3.73;;;5.20;1.00;6.00;99925.00;;;;5000707;28;20469;-78
2021/12/07 07:08:06;;;;;;;9.00;3.97;;;5.20;1.00;6.00;99913.00;;;;4990440;28;20529;-78
2021/12/07 07:10:35;;;;;;;8.37;3.43;;;5.20;1.00;6.00;99923.00;;;;4985572;28;20484;-79
2021/12/07 07:13:03;;;;;;;10.17;3.87;;;5.20;1.00;6.10;99892.00;;;;4987002;28;20484;-78
2021/12/07 07:15:31;;;;;;;10.30;4.03;;;5.30;1.00;6.10;99919.00;;;;4994858;28;20451;-78
2021/12/07 07:18:01;;;;;;;7.40;4.00;;;5.30;1.00;6.20;99925.00;;;;4991493;28;20474;-78
2021/12/07 07:20:30;;;;;;;9.97;4.43;;;5.30;1.00;6.20;99887.00;;;;5000351;28;20489;-78
2021/12/07 07:22:58;;;;;;;12.13;4.30;;;5.30;1.00;6.20;99939.00;;;;5002499;28;20457;-78
2021/12/07 07:25:26;;;;;;;8.10;3.27;;;5.30;1.00;6.20;99943.00;;;;4999353;28;20467;-78
2021/12/07 07:27:55;;;;;;;10.40;4.40;;;5.30;1.00;6.20;99924.00;;;;4988274;28;20451;-78
2021/12/07 07:30:23;;;;;;;10.33;4.17;;;5.30;1.00;6.20;99946.00;;;;4976480;28;20564;-79
2021/12/07 07:32:52;;;;;;;9.97;4.23;;;5.30;1.00;6.20;99934.00;;;;4995580;28;20451;-79
2021/12/07 07:35:23;;;;;;;7.20;3.90;;;5.30;1.00;6.20;99942.00;;;;4995150;28;20455;-79
2021/12/07 07:37:52;;;;;;;10.37;4.40;;;5.40;1.00;6.20;99942.00;;;;4996426;28;20557;-79
2021/12/07 07:40:23;;;;;;;13.47;4.10;;;5.40;1.00;6.20;99935.00;;;;4994584;28;20482;-77
2021/12/07 07:42:52;;;;;;;10.13;4.00;;;5.40;1.00;6.20;99901.00;;;;4996504;28;20796;-77
2021/12/07 07:45:42;;;;;;;8.73;4.33;;;5.40;1.00;6.30;99946.00;;;;4992680;28;20877;-78
2021/12/07 07:48:16;;;;;;;13.13;3.90;;;5.40;1.00;6.20;99944.00;;;;5007902;28;20459;-79
2021/12/07 07:50:48;;;;;;;10.60;4.00;;;5.40;1.00;6.30;99950.00;;;;5007307;28;20855;-77
2021/12/07 07:53:16;;;;;;;8.30;3.90;;;5.40;1.00;6.20;99965.00;;;;5001870;28;20450;-77
2021/12/07 07:55:49;;;;;;;10.50;3.30;;;5.40;1.00;6.20;99953.00;;;;4994379;28;20475;-78
2021/12/07 07:58:18;;;;;;;8.33;3.87;;;5.40;1.00;6.10;99951.00;;;;4991456;28;20474;-79
2021/12/07 08:03:48;;;;;;;10.43;4.17;;;5.30;1.00;6.00;99967.00;;;;4986377;28;20505;-79
2021/12/07 08:06:19;;;;;;;7.10;3.30;;;5.30;1.00;6.00;99910.00;;;;5014083;28;20465;-80
2021/12/07 08:08:47;;;;;;;9.27;3.97;;;5.30;1.00;5.90;99957.00;;;;5005904;28;21106;-80
2021/12/07 08:11:16;;;;;;;9.50;4.00;;;5.20;1.00;5.90;99976.00;;;;5011728;28;20534;-79
2021/12/07 08:13:54;;;;;;;10.00;4.30;;;5.20;1.00;5.90;99979.00;;;;5003707;28;20459;-79
2021/12/07 08:16:25;;;;;;;9.73;3.60;;;5.20;1.00;6.00;99984.00;;;;4991375;28;20463;-79
2021/12/07 08:18:54;;;;;;;11.60;4.17;;;5.20;1.00;6.10;100010.00;;;;4999797;28;20502;-80
2021/12/07 08:21:26;;;;;;;10.83;4.07;;;5.20;1.00;6.10;100024.00;;;;4998504;28;20482;-80
2021/12/07 08:23:55;;;;;;;7.90;3.97;;;5.30;1.00;6.20;100019.00;;;;4987090;28;20919;-81
2021/12/07 08:26:25;;;;;;;9.93;4.13;;;5.30;1.00;6.30;100021.00;;;;4998870;28;20527;-80
2021/12/07 08:28:56;;;;;;;8.70;3.80;;;5.40;1.00;6.40;100013.00;;;;5005100;28;20531;-80
2021/12/07 08:31:26;;;;;;;7.43;2.90;;;5.50;1.00;6.50;99973.00;;;;5011586;28;20546;-81
2021/12/07 08:33:55;;;;;;;12.80;4.07;;;5.50;1.00;6.50;99992.00;;;;5000690;28;20494;-80
2021/12/07 08:36:23;;;;;;;7.80;3.83;;;5.60;1.00;6.60;100008.00;;;;5024242;28;20458;-78
2021/12/07 08:38:53;;;;;;;11.87;4.23;;;5.60;1.00;6.60;100021.00;;;;4983359;28;20473;-78
2021/12/07 08:41:22;;;;;;;9.53;3.77;;;5.60;1.00;6.60;100030.00;;;;5002760;28;20485;-78
2021/12/07 08:43:52;;;;;;;7.73;3.40;;;5.60;1.00;6.70;100008.00;;;;4999070;28;20960;-79
2021/12/07 08:46:21;;;;;;;9.97;4.00;;;5.70;1.00;6.60;100025.00;;;;5002880;28;20549;-78
2021/12/07 08:48:50;;;;;;;6.60;3.60;;;5.80;1.00;6.60;100017.00;;;;5009831;28;20485;-79
2021/12/07 08:51:19;;;;;;;9.53;3.60;;;5.70;1.00;6.30;100017.00;;;;5002536;28;20470;-78
2021/12/07 08:53:53;;;;;;;7.43;4.03;;;5.70;1.00;6.50;100010.00;;;;5009128;28;20518;-80
2021/12/07 09:01:56;;;;;;;7.93;3.60;;;5.70;1.00;6.50;100000.00;;;;5001338;28;20474;-78
2021/12/07 09:04:24;;;;;;;11.73;4.30;;;5.70;1.00;6.40;100008.00;;;;5001019;28;20459;-80
2021/12/07 09:06:53;;;;;;;7.63;3.93;;;5.80;1.00;6.50;100012.00;;;;5006375;28;20462;-79
2021/12/07 09:09:21;;;;;;;9.10;4.00;;;5.80;1.00;6.40;100020.00;;;;5003972;28;20497;-79
2021/12/07 09:11:55;;;;;;;9.03;3.97;;;5.80;1.00;6.60;100025.00;;;;5003913;28;21027;-81
2021/12/07 09:14:30;;;;;;;10.97;4.57;;;5.90;1.00;6.70;100023.00;;;;4992865;28;20478;-79
2021/12/07 09:16:59;;;;;;;6.47;3.70;;;6.00;1.00;6.70;100011.00;;;;4997423;28;20459;-79
2021/12/07 09:19:28;;;;;;;12.10;4.53;;;6.10;1.00;6.90;99995.00;;;;5001010;28;20498;-79
2021/12/07 09:21:57;;;;;;;10.70;4.17;;;6.20;1.00;6.90;99970.00;;;;5000767;28;20480;-79
2021/12/07 09:24:45;;;;;;;10.97;4.37;;;6.40;1.00;7.00;100029.00;;;;5020161;28;20533;-78
2021/12/07 09:27:15;;;;;;;6.47;3.90;;;6.40;1.00;6.90;100026.00;;;;5010562;28;20609;-79
2021/12/07 09:29:45;;;;;;;9.00;4.50;;;6.30;1.00;7.00;100045.00;;;;5000183;28;20459;-79
2021/12/07 09:32:14;;;;;;;8.63;4.70;;;6.30;1.00;6.90;100038.00;;;;5005293;28;20764;-80
2021/12/07 09:34:43;;;;;;;10.30;4.10;;;6.20;1.00;6.70;100036.00;;;;4999611;28;20509;-79
2021/12/07 09:37:11;;;;;;;8.93;3.87;;;6.10;1.00;6.70;100042.00;;;;5001800;28;20455;-79
2021/12/07 09:39:40;;;;;;;10.37;3.80;;;6.00;1.00;6.50;100003.00;;;;4990579;28;20547;-79
2021/12/07 09:42:08;;;;;;;6.80;3.40;;;5.90;1.00;6.60;100041.00;;;;4980305;28;20455;-78
2021/12/07 09:44:38;;;;;;;5.73;3.27;;;6.00;1.00;6.60;100027.00;;;;5000573;28;20557;-78
2021/12/07 09:47:06;;;;;;;8.30;3.40;;;6.10;1.00;6.60;100045.00;;;;5006605;28;20550;-79
2021/12/07 09:49:35;;;;;;;6.70;3.03;;;6.00;1.00;6.70;100000.00;;;;4999434;28;20466;-79
2021/12/07 09:52:04;;;;;;;11.17;3.93;;;6.10;1.00;6.70;100053.00;;;;5013439;28;20459;-79
2021/12/07 09:54:33;;;;;;;7.83;2.80;;;6.10;1.00;6.60;100034.00;;;;5017241;28;20423;-78
2021/12/07 09:57:04;;;;;;;7.20;3.07;;;6.10;1.00;6.70;100044.00;;;;5015085;28;20431;-79
2021/12/07 09:59:33;;;;;;;7.73;3.20;;;6.10;1.00;6.80;99993.00;;;;5001156;28;20502;-78
2021/12/07 10:02:06;;;;;;;8.90;3.60;;;6.10;1.00;6.90;100047.00;;;;4995771;28;20557;-80
2021/12/07 10:04:36;;;;;;;9.43;3.73;;;6.10;1.00;7.00;100058.00;;;;4996742;28;20967;-79
2021/12/07 10:07:04;;;;;;;10.23;3.63;;;6.20;1.00;6.90;100057.00;;;;4996581;28;20458;-79
2021/12/07 10:09:33;;;;;;;6.33;3.10;;;6.20;1.00;6.90;100058.00;;;;4995605;28;20482;-79
2021/12/07 10:12:01;;;;;;;8.73;3.10;;;6.20;1.00;6.80;100058.00;;;;4994870;28;20510;-79
2021/12/07 10:14:38;;;;;;;8.20;3.00;;;6.20;1.00;6.80;100065.00;;;;4995302;28;20458;-78
2021/12/07 10:17:09;;;;;;;8.87;3.00;;;6.10;1.00;6.90;100060.00;;;;4995185;28;20458;-78
2021/12/07 10:19:43;;;;;;;8.67;3.23;;;6.30;1.00;6.90;100062.00;;;;5001926;28;20471;-78
2021/12/07 10:22:19;;;;;;;8.30;2.80;;;6.30;1.00;7.00;100050.00;;;;5000572;28;20448;-79
2021/12/07 10:24:51;;;;;;;9.00;2.63;;;6.40;1.00;7.30;100077.00;;;;5009634;28;20482;-78
2021/12/07 10:27:34;;;;;;;8.27;2.80;;;6.50;1.00;7.40;100051.00;;;;5001850;28;20466;-78
2021/12/07 10:30:07;;;;;;;7.63;3.07;;;6.70;1.00;7.30;100052.00;;;;5013547;28;20947;-79
2021/12/07 10:32:40;;;;;;;9.57;3.00;;;6.70;1.00;7.30;100050.00;;;;5015613;28;20463;-78
2021/12/07 10:35:27;;;;;;;9.30;3.50;;;6.70;1.00;7.40;100067.00;;;;5011039;28;24808;-79
2021/12/07 10:38:11;;;;;;;7.87;2.50;;;6.70;1.00;7.50;100017.00;;;;4989554;28;20455;-78
2021/12/07 10:40:55;;;;;;;5.67;3.30;;;6.70;1.00;7.70;100067.00;;;;5005278;28;20488;-79
2021/12/07 10:43:45;;;;;;;9.50;3.30;;;6.70;1.00;7.60;100058.00;;;;5005274;28;20450;-79
2021/12/07 10:46:43;;;;;;;6.07;2.57;;;6.70;1.00;7.60;100047.00;;;;4992453;28;20462;-77
2021/12/07 10:49:33;;;;;;;9.87;3.43;;;6.70;1.00;7.70;100062.00;;;;5006030;28;20484;-79
2021/12/07 10:52:13;;;;;;;8.50;3.30;;;6.70;1.00;7.60;100039.00;;;;5015365;28;20478;-79
2021/12/07 10:54:51;;;;;;;6.47;3.43;;;6.60;1.00;7.60;100047.00;;;;5006666;28;20462;-79
2021/12/07 10:57:23;;;;;;;5.53;2.87;;;6.70;1.00;7.60;100039.00;;;;4998411;28;20461;-79
2021/12/07 11:00:16;;;;;;;7.83;2.77;;;6.70;1.00;7.70;100037.00;;;;5007752;28;20471;-80
2021/12/07 11:02:48;;;;;;;8.53;3.07;;;6.80;1.00;7.50;100000.00;;;;4992341;28;20463;-79
2021/12/07 11:05:21;;;;;;;11.00;2.93;;;6.80;1.00;7.50;100039.00;;;;5024360;28;20540;-77
2021/12/07 11:07:51;;;;;;;9.03;3.13;;;6.80;1.00;7.60;100018.00;;;;5014467;28;20439;-77
2021/12/07 11:10:29;;;;;;;5.73;2.60;;;6.80;1.00;7.70;100029.00;;;;5017920;28;20505;-78
2021/12/07 11:13:02;;;;;;;6.30;2.53;;;7.00;1.00;7.70;100013.00;;;;5025392;28;20508;-76
2021/12/07 11:15:36;;;;;;;10.33;3.47;;;7.00;1.00;7.60;100019.00;;;;5010383;28;20493;-78
2021/12/07 11:18:09;;;;;;;4.97;2.57;;;6.80;1.00;7.60;99999.00;;;;5007228;28;20457;-80
2021/12/07 11:20:40;;;;;;;11.67;3.50;;;6.70;1.00;7.50;100016.00;;;;5008271;28;20979;-78
2021/12/07 11:23:17;;;;;;;6.37;2.60;;;6.70;1.00;7.70;100024.00;;;;5005810;28;20470;-78
2021/12/07 11:29:39;;;;;;;7.50;2.83;;;6.80;1.00;7.90;100008.00;;;;5003555;28;20464;-78
2021/12/07 11:31:40;;;;;;;6.27;2.87;;;7.00;1.00;7.70;100017.00;;;;5011258;28;20480;-78
2021/12/07 11:34:12;;;;;;;6.37;2.60;;;6.90;1.00;7.90;99966.00;;;;5014837;28;20461;-79
2021/12/07 11:36:47;;;;;;;7.43;2.70;;;7.10;1.00;8.30;99982.00;;;;5011759;28;20461;-78
2021/12/07 11:39:26;;;;;;;8.77;3.10;;;7.50;1.00;8.50;99999.00;;;;5004983;28;20477;-78
2021/12/07 11:42:02;;;;;;;7.40;2.80;;;7.90;1.00;8.80;100003.00;;;;5003702;28;20500;-78
2021/12/07 11:44:35;;;;;;;7.00;2.97;;;8.10;1.00;8.90;100017.00;;;;5002183;28;20903;-77
2021/12/07 11:47:06;;;;;;;12.00;3.53;;;8.20;1.00;9.10;99991.00;;;;5001811;28;20800;-79
2021/12/07 11:49:37;;;;;;;11.50;3.33;;;8.30;1.00;9.20;100005.00;;;;5008355;28;20467;-79
2021/12/07 11:52:09;;;;;;;10.20;2.83;;;8.40;1.00;9.00;100001.00;;;;4999041;28;20513;-78
2021/12/07 11:54:41;;;;;;;8.00;3.30;;;8.40;1.00;9.10;100008.00;;;;5003838;28;20442;-78
2021/12/07 11:57:14;;;;;;;11.13;2.97;;;8.40;1.00;8.80;100008.00;;;;5007521;28;20441;-79
2021/12/07 11:59:44;;;;;;;7.40;2.77;;;8.20;1.00;8.30;99984.00;;;;4998244;28;20471;-78
2021/12/07 12:02:15;;;;;;;7.17;3.30;;;7.70;1.00;8.30;100010.00;;;;5004080;28;20447;-78
2021/12/07 12:04:44;;;;;;;9.60;3.60;;;7.50;1.00;8.30;100006.00;;;;5006957;28;20462;-79
2021/12/07 12:07:14;;;;;;;7.67;3.10;;;7.40;1.00;8.10;99993.00;;;;5001559;28;20450;-78
2021/12/07 12:09:48;;;;;;;10.90;3.00;;;7.30;1.00;8.00;99952.00;;;;5003987;28;20526;-77
2021/12/07 12:12:26;;;;;;;6.70;2.70;;;7.20;1.00;8.10;99990.00;;;;4999968;28;20537;-77
2021/12/07 12:15:16;;;;;;;8.27;3.43;;;7.30;1.00;8.50;99986.00;;;;4998335;28;20955;-78
2021/12/07 12:18:00;;;;;;;7.70;2.63;;;7.50;1.00;8.40;100000.00;;;;4997941;28;20482;-78
2021/12/07 12:20:45;;;;;;;9.73;2.90;;;7.40;1.00;8.30;99968.00;;;;4997523;28;20497;-79
2021/12/07 12:23:25;;;;;;;14.53;3.20;;;7.40;1.00;8.40;99966.00;;;;4999809;28;20439;-78
2021/12/07 12:25:58;;;;;;;5.60;2.50;;;7.50;1.00;8.60;99955.00;;;;5002447;28;20446;-79
2021/12/07 12:28:33;;;;;;;6.10;2.70;;;7.80;1.00;8.50;99976.00;;;;4996298;28;20533;-79
2021/12/07 12:31:05;;;;;;;7.13;3.20;;;7.80;1.00;8.40;99946.00;;;;5004009;28;20470;-78
2021/12/07 12:33:49;;;;;;;9.53;3.00;;;7.80;1.00;8.60;99943.00;;;;5001850;28;20462;-79
2021/12/07 12:36:19;;;;;;;8.37;2.50;;;7.90;1.00;8.70;99943.00;;;;5001573;28;20478;-76
2021/12/07 12:38:58;;;;;;;8.50;3.00;;;8.00;1.00;8.70;99941.00;;;;5004298;28;20469;-79
2021/12/07 12:41:27;;;;;;;8.97;2.83;;;8.10;1.00;8.80;99944.00;;;;4984310;28;20564;-79
2021/12/07 12:43:58;;;;;;;6.20;2.60;;;8.20;1.00;8.90;99955.00;;;;5003764;28;20509;-79
2021/12/07 12:46:35;;;;;;;10.00;2.70;;;8.20;1.00;8.90;99928.00;;;;5006611;28;20454;-79
2021/12/07 12:49:10;;;;;;;10.77;2.90;;;8.30;1.00;9.00;99933.00;;;;5003771;28;20491;-80
2021/12/07 12:51:47;;;;;;;7.80;3.00;;;8.30;1.00;9.00;99924.00;;;;5001817;28;20478;-79